sensor_id;sensor_type;location;lat;lon;timestamp;temperature;humidity
18906;DHT22;9585;51.018;4.282;2024-01-15T00:01:02;2.00;99.90
18906;DHT22;9585;51.018;4.282;2024-01-15T00:03:31;2.00;99.90
18906;DHT22;9585;51.018;4.282;2024-01-15T00:05:59;2.00;99.90
18906;DHT22;9585;51.018;4.282;2024-01-15T00:08:26;2.00;99.90
18906;DHT22;9585;51.018;4.282;2024-01-15T00:10:57;2.10;99.90
18906;DHT22;9585;51.018;4.282;2024-01-15T00:13:24;2.00;99.90
18906;DHT22;9585;51.018;4.282;2024-01-15T00:15:52;2.00;99.90
18906;DHT22;9585;51.018;4.282;2024-01-15T00:18:22;2.00;99.90
18906;DHT22;9585;51.018;4.282;2024-01-15T00:20:51;2.00;99.90
18906;DHT22;9585;51.018;4.282;2024-01-15T00:23:18;2.00;99.90
18906;DHT22;9585;51.018;4.282;2024-01-15T00:25:46;1.90;99.90
18906;DHT22;9585;51.018;4.282;2024-01-15T00:28:14;2.00;99.90
18906;DHT22;9585;51.018;4.282;2024-01-15T00:30:41;2.10;99.90
18906;DHT22;9585;51.018;4.282;2024-01-15T00:33:09;2.10;99.90
18906;DHT22;9585;51.018;4.282;2024-01-15T00:35:38;2.20;99.90
18906;DHT22;9585;51.018;4.282;2024-01-15T00:38:08;2.30;99.90
18906;DHT22;9585;51.018;4.282;2024-01-15T00:40:42;2.30;99.90
18906;DHT22;9585;51.018;4.282;2024-01-15T00:43:10;2.30;99.90
18906;DHT22;9585;51.018;4.282;2024-01-15T00:45:38;2.20;99.90
18906;DHT22;9585;51.018;4.282;2024-01-15T00:48:06;2.20;99.90
18906;DHT22;9585;51.018;4.282;2024-01-15T00:50:33;2.10;99.90
18906;DHT22;9585;51.018;4.282;2024-01-15T00:53:01;2.10;99.90
18906;DHT22;9585;51.018;4.282;2024-01-15T00:55:30;2.10;99.90
18906;DHT22;9585;51.018;4.282;2024-01-15T00:57:58;2.10;99.90
18906;DHT22;9585;51.018;4.282;2024-01-15T01:00:25;2.10;99.90
18906;DHT22;9585;51.018;4.282;2024-01-15T01:02:53;2.10;99.90
18906;DHT22;9585;51.018;4.282;2024-01-15T01:05:21;2.00;99.90
18906;DHT22;9585;51.018;4.282;2024-01-15T01:07:48;2.10;99.90
18906;DHT22;9585;51.018;4.282;2024-01-15T01:10:16;2.10;99.90
18906;DHT22;9585;51.018;4.282;2024-01-15T01:12:45;2.10;99.90
18906;DHT22;9585;51.018;4.282;2024-01-15T01:15:13;2.10;99.90
18906;DHT22;9585;51.018;4.282;2024-01-15T01:17:40;2.10;99.90
18906;DHT22;9585;51.018;4.282;2024-01-15T01:20:08;2.10;99.90
18906;DHT22;9585;51.018;4.282;2024-01-15T01:22:39;2.00;99.90
18906;DHT22;9585;51.018;4.282;2024-01-15T01:25:07;2.00;99.90
18906;DHT22;9585;51.018;4.282;2024-01-15T01:27:35;1.90;99.90
18906;DHT22;9585;51.018;4.282;2024-01-15T01:30:06;1.90;99.90
18906;DHT22;9585;51.018;4.282;2024-01-15T01:32:33;1.80;99.90
18906;DHT22;9585;51.018;4.282;2024-01-15T01:35:01;1.70;99.90
18906;DHT22;9585;51.018;4.282;2024-01-15T01:37:28;1.70;99.90
18906;DHT22;9585;51.018;4.282;2024-01-15T01:39:56;1.70;99.90
18906;DHT22;9585;51.018;4.282;2024-01-15T01:42:26;1.70;99.90
18906;DHT22;9585;51.018;4.282;2024-01-15T01:44:54;1.70;99.90
18906;DHT22;9585;51.018;4.282;2024-01-15T01:47:23;1.80;99.90
18906;DHT22;9585;51.018;4.282;2024-01-15T01:49:52;1.80;99.90
18906;DHT22;9585;51.018;4.282;2024-01-15T01:52:20;1.80;99.90
18906;DHT22;9585;51.018;4.282;2024-01-15T01:54:48;1.80;99.90
18906;DHT22;9585;51.018;4.282;2024-01-15T01:57:17;1.80;99.90
18906;DHT22;9585;51.018;4.282;2024-01-15T01:59:46;1.80;99.90
18906;DHT22;9585;51.018;4.282;2024-01-15T02:02:14;1.80;99.90
18906;DHT22;9585;51.018;4.282;2024-01-15T02:04:44;1.90;99.90
18906;DHT22;9585;51.018;4.282;2024-01-15T02:07:12;1.90;99.90
18906;DHT22;9585;51.018;4.282;2024-01-15T02:09:42;1.90;99.90
18906;DHT22;9585;51.018;4.282;2024-01-15T02:12:09;2.00;99.90
18906;DHT22;9585;51.018;4.282;2024-01-15T02:14:37;1.90;99.90
18906;DHT22;9585;51.018;4.282;2024-01-15T02:17:05;1.90;99.90
18906;DHT22;9585;51.018;4.282;2024-01-15T02:19:32;2.00;99.90
18906;DHT22;9585;51.018;4.282;2024-01-15T02:22:01;2.00;99.90
18906;DHT22;9585;51.018;4.282;2024-01-15T02:24:30;2.00;99.90
18906;DHT22;9585;51.018;4.282;2024-01-15T02:26:58;2.00;99.90
18906;DHT22;9585;51.018;4.282;2024-01-15T02:29:26;2.00;99.90
18906;DHT22;9585;51.018;4.282;2024-01-15T02:31:54;2.10;99.90
18906;DHT22;9585;51.018;4.282;2024-01-15T02:34:21;2.00;99.90
18906;DHT22;9585;51.018;4.282;2024-01-15T02:36:49;2.00;99.90
18906;DHT22;9585;51.018;4.282;2024-01-15T02:39:16;2.00;99.90
18906;DHT22;9585;51.018;4.282;2024-01-15T02:41:46;2.00;99.90
18906;DHT22;9585;51.018;4.282;2024-01-15T02:44:13;2.00;99.90
18906;DHT22;9585;51.018;4.282;2024-01-15T02:46:41;2.00;99.90
18906;DHT22;9585;51.018;4.282;2024-01-15T02:49:09;1.90;99.90
18906;DHT22;9585;51.018;4.282;2024-01-15T02:51:36;2.00;99.90
18906;DHT22;9585;51.018;4.282;2024-01-15T02:54:04;2.00;99.90
18906;DHT22;9585;51.018;4.282;2024-01-15T02:56:32;2.00;99.90
18906;DHT22;9585;51.018;4.282;2024-01-15T02:59:01;2.10;99.90
18906;DHT22;9585;51.018;4.282;2024-01-15T03:01:30;2.10;99.90
18906;DHT22;9585;51.018;4.282;2024-01-15T03:03:57;2.10;99.90
18906;DHT22;9585;51.018;4.282;2024-01-15T03:06:25;2.10;99.90
18906;DHT22;9585;51.018;4.282;2024-01-15T03:08:52;2.10;99.90
18906;DHT22;9585;51.018;4.282;2024-01-15T03:11:22;2.20;99.90
18906;DHT22;9585;51.018;4.282;2024-01-15T03:13:49;2.20;99.90
18906;DHT22;9585;51.018;4.282;2024-01-15T03:16:18;2.20;99.90
18906;DHT22;9585;51.018;4.282;2024-01-15T03:18:46;2.20;99.90
18906;DHT22;9585;51.018;4.282;2024-01-15T03:21:14;2.20;99.90
18906;DHT22;9585;51.018;4.282;2024-01-15T03:23:41;2.20;99.90
18906;DHT22;9585;51.018;4.282;2024-01-15T03:26:09;2.20;99.90
18906;DHT22;9585;51.018;4.282;2024-01-15T03:28:37;2.20;99.90
18906;DHT22;9585;51.018;4.282;2024-01-15T03:31:04;2.10;99.90
18906;DHT22;9585;51.018;4.282;2024-01-15T03:33:33;2.10;99.90
18906;DHT22;9585;51.018;4.282;2024-01-15T03:36:01;2.10;99.90
18906;DHT22;9585;51.018;4.282;2024-01-15T03:38:29;2.10;99.90
18906;DHT22;9585;51.018;4.282;2024-01-15T03:40:56;2.10;99.90
18906;DHT22;9585;51.018;4.282;2024-01-15T03:43:24;2.20;99.90
18906;DHT22;9585;51.018;4.282;2024-01-15T03:45:51;2.10;99.90
18906;DHT22;9585;51.018;4.282;2024-01-15T03:48:19;2.10;99.90
18906;DHT22;9585;51.018;4.282;2024-01-15T03:50:48;2.10;99.90
18906;DHT22;9585;51.018;4.282;2024-01-15T03:53:16;2.10;99.90
18906;DHT22;9585;51.018;4.282;2024-01-15T03:55:43;2.10;99.90
18906;DHT22;9585;51.018;4.282;2024-01-15T03:58:11;2.00;99.90
18906;DHT22;9585;51.018;4.282;2024-01-15T04:00:40;2.00;99.90
18906;DHT22;9585;51.018;4.282;2024-01-15T04:03:08;2.00;99.90
18906;DHT22;9585;51.018;4.282;2024-01-15T04:05:35;1.90;99.90
18906;DHT22;9585;51.018;4.282;2024-01-15T04:08:05;1.90;99.90
18906;DHT22;9585;51.018;4.282;2024-01-15T04:10:33;1.90;99.90
18906;DHT22;9585;51.018;4.282;2024-01-15T04:13:01;1.80;99.90
18906;DHT22;9585;51.018;4.282;2024-01-15T04:15:29;1.80;99.90
18906;DHT22;9585;51.018;4.282;2024-01-15T04:17:57;1.70;99.90
18906;DHT22;9585;51.018;4.282;2024-01-15T04:20:24;1.70;99.90
18906;DHT22;9585;51.018;4.282;2024-01-15T04:22:52;1.50;99.90
18906;DHT22;9585;51.018;4.282;2024-01-15T04:25:21;1.50;99.90
18906;DHT22;9585;51.018;4.282;2024-01-15T04:27:48;1.50;99.90
18906;DHT22;9585;51.018;4.282;2024-01-15T04:30:16;1.40;99.90
18906;DHT22;9585;51.018;4.282;2024-01-15T04:32:44;1.40;99.90
18906;DHT22;9585;51.018;4.282;2024-01-15T04:35:12;1.40;99.90
18906;DHT22;9585;51.018;4.282;2024-01-15T04:37:40;1.40;99.90
18906;DHT22;9585;51.018;4.282;2024-01-15T04:40:08;1.40;99.90
18906;DHT22;9585;51.018;4.282;2024-01-15T04:42:37;1.50;99.90
18906;DHT22;9585;51.018;4.282;2024-01-15T04:45:05;1.50;99.90
18906;DHT22;9585;51.018;4.282;2024-01-15T04:47:33;1.50;99.90
18906;DHT22;9585;51.018;4.282;2024-01-15T04:50:03;1.50;99.90
18906;DHT22;9585;51.018;4.282;2024-01-15T04:52:30;1.50;99.90
18906;DHT22;9585;51.018;4.282;2024-01-15T04:54:58;1.40;99.90
18906;DHT22;9585;51.018;4.282;2024-01-15T04:57:25;1.40;99.90
18906;DHT22;9585;51.018;4.282;2024-01-15T04:59:55;1.40;99.90
18906;DHT22;9585;51.018;4.282;2024-01-15T05:02:22;1.40;99.90
18906;DHT22;9585;51.018;4.282;2024-01-15T05:04:50;1.30;99.90
18906;DHT22;9585;51.018;4.282;2024-01-15T05:07:17;1.30;99.90
18906;DHT22;9585;51.018;4.282;2024-01-15T05:09:45;1.30;99.90
18906;DHT22;9585;51.018;4.282;2024-01-15T05:12:14;1.30;99.90
18906;DHT22;9585;51.018;4.282;2024-01-15T05:14:41;1.30;99.90
18906;DHT22;9585;51.018;4.282;2024-01-15T05:17:10;1.20;99.90
18906;DHT22;9585;51.018;4.282;2024-01-15T05:19:38;1.30;99.90
18906;DHT22;9585;51.018;4.282;2024-01-15T05:22:06;1.30;99.90
18906;DHT22;9585;51.018;4.282;2024-01-15T05:24:35;1.30;99.90
18906;DHT22;9585;51.018;4.282;2024-01-15T05:27:03;1.20;99.90
18906;DHT22;9585;51.018;4.282;2024-01-15T05:29:30;1.20;99.90
18906;DHT22;9585;51.018;4.282;2024-01-15T05:31:58;1.20;99.90
18906;DHT22;9585;51.018;4.282;2024-01-15T05:34:27;1.20;99.90
18906;DHT22;9585;51.018;4.282;2024-01-15T05:36:55;1.20;99.90
18906;DHT22;9585;51.018;4.282;2024-01-15T05:39:22;1.10;99.90
18906;DHT22;9585;51.018;4.282;2024-01-15T05:41:51;1.10;99.90
18906;DHT22;9585;51.018;4.282;2024-01-15T05:44:19;1.10;99.90
18906;DHT22;9585;51.018;4.282;2024-01-15T05:46:46;1.20;99.90
18906;DHT22;9585;51.018;4.282;2024-01-15T05:49:14;1.10;99.90
18906;DHT22;9585;51.018;4.282;2024-01-15T05:51:43;1.20;99.90
18906;DHT22;9585;51.018;4.282;2024-01-15T05:54:10;1.10;99.90
18906;DHT22;9585;51.018;4.282;2024-01-15T05:56:38;1.10;99.90
18906;DHT22;9585;51.018;4.282;2024-01-15T05:59:06;1.20;99.90
18906;DHT22;9585;51.018;4.282;2024-01-15T06:01:33;1.10;99.90
18906;DHT22;9585;51.018;4.282;2024-01-15T06:04:01;1.10;99.90
18906;DHT22;9585;51.018;4.282;2024-01-15T06:06:28;1.10;99.90
18906;DHT22;9585;51.018;4.282;2024-01-15T06:08:57;1.10;99.90
18906;DHT22;9585;51.018;4.282;2024-01-15T06:11:31;1.10;99.90
18906;DHT22;9585;51.018;4.282;2024-01-15T06:13:58;1.10;99.90
18906;DHT22;9585;51.018;4.282;2024-01-15T06:16:28;1.00;99.90
18906;DHT22;9585;51.018;4.282;2024-01-15T06:18:55;1.00;99.90
18906;DHT22;9585;51.018;4.282;2024-01-15T06:21:23;1.00;99.90
18906;DHT22;9585;51.018;4.282;2024-01-15T06:23:51;1.00;99.90
18906;DHT22;9585;51.018;4.282;2024-01-15T06:26:19;0.90;99.90
18906;DHT22;9585;51.018;4.282;2024-01-15T06:28:47;0.90;99.90
18906;DHT22;9585;51.018;4.282;2024-01-15T06:31:15;0.90;99.90
18906;DHT22;9585;51.018;4.282;2024-01-15T06:33:43;0.90;99.90
18906;DHT22;9585;51.018;4.282;2024-01-15T06:36:13;0.80;99.90
18906;DHT22;9585;51.018;4.282;2024-01-15T06:38:40;0.80;99.90
18906;DHT22;9585;51.018;4.282;2024-01-15T06:41:08;0.80;99.90
18906;DHT22;9585;51.018;4.282;2024-01-15T06:43:37;0.80;99.90
18906;DHT22;9585;51.018;4.282;2024-01-15T06:46:05;0.80;99.90
18906;DHT22;9585;51.018;4.282;2024-01-15T06:48:32;0.80;99.90
18906;DHT22;9585;51.018;4.282;2024-01-15T06:51:00;0.80;99.90
18906;DHT22;9585;51.018;4.282;2024-01-15T06:53:30;0.80;99.90
18906;DHT22;9585;51.018;4.282;2024-01-15T06:55:58;0.70;99.90
18906;DHT22;9585;51.018;4.282;2024-01-15T06:58:25;0.70;99.90
18906;DHT22;9585;51.018;4.282;2024-01-15T07:00:56;0.70;99.90
18906;DHT22;9585;51.018;4.282;2024-01-15T07:03:26;0.70;99.90
18906;DHT22;9585;51.018;4.282;2024-01-15T07:05:53;0.70;99.90
18906;DHT22;9585;51.018;4.282;2024-01-15T07:08:21;0.80;99.90
18906;DHT22;9585;51.018;4.282;2024-01-15T07:10:48;0.80;99.90
18906;DHT22;9585;51.018;4.282;2024-01-15T07:13:16;0.70;99.90
18906;DHT22;9585;51.018;4.282;2024-01-15T07:15:43;0.70;99.90
18906;DHT22;9585;51.018;4.282;2024-01-15T07:18:12;0.80;99.90
18906;DHT22;9585;51.018;4.282;2024-01-15T07:20:40;0.80;99.90
18906;DHT22;9585;51.018;4.282;2024-01-15T07:23:07;0.80;99.90
18906;DHT22;9585;51.018;4.282;2024-01-15T07:25:35;0.80;99.90
18906;DHT22;9585;51.018;4.282;2024-01-15T07:28:03;0.90;99.90
18906;DHT22;9585;51.018;4.282;2024-01-15T07:30:31;0.90;99.90
18906;DHT22;9585;51.018;4.282;2024-01-15T07:32:58;0.90;99.90
18906;DHT22;9585;51.018;4.282;2024-01-15T07:35:26;0.90;99.90
18906;DHT22;9585;51.018;4.282;2024-01-15T07:37:54;0.90;99.90
18906;DHT22;9585;51.018;4.282;2024-01-15T07:40:21;0.90;99.90
18906;DHT22;9585;51.018;4.282;2024-01-15T07:42:50;0.90;99.90
18906;DHT22;9585;51.018;4.282;2024-01-15T07:45:18;1.00;99.90
18906;DHT22;9585;51.018;4.282;2024-01-15T07:47:45;1.00;99.90
18906;DHT22;9585;51.018;4.282;2024-01-15T07:50:13;1.00;99.90
18906;DHT22;9585;51.018;4.282;2024-01-15T07:52:42;1.00;99.90
18906;DHT22;9585;51.018;4.282;2024-01-15T07:55:09;1.10;99.90
18906;DHT22;9585;51.018;4.282;2024-01-15T07:57:37;1.10;99.90
18906;DHT22;9585;51.018;4.282;2024-01-15T08:00:06;1.10;99.90
18906;DHT22;9585;51.018;4.282;2024-01-15T08:02:35;1.20;99.90
18906;DHT22;9585;51.018;4.282;2024-01-15T08:05:03;1.20;99.90
18906;DHT22;9585;51.018;4.282;2024-01-15T08:07:30;1.20;99.90
18906;DHT22;9585;51.018;4.282;2024-01-15T08:09:59;1.20;99.90
18906;DHT22;9585;51.018;4.282;2024-01-15T08:12:27;1.20;99.90
18906;DHT22;9585;51.018;4.282;2024-01-15T08:14:55;1.30;99.90
18906;DHT22;9585;51.018;4.282;2024-01-15T08:17:22;1.30;99.90
18906;DHT22;9585;51.018;4.282;2024-01-15T08:19:54;1.30;99.90
18906;DHT22;9585;51.018;4.282;2024-01-15T08:22:22;1.30;99.90
18906;DHT22;9585;51.018;4.282;2024-01-15T08:24:50;1.40;99.90
18906;DHT22;9585;51.018;4.282;2024-01-15T08:27:19;1.50;99.90
18906;DHT22;9585;51.018;4.282;2024-01-15T08:29:47;1.40;99.90
18906;DHT22;9585;51.018;4.282;2024-01-15T08:32:14;1.40;99.90
18906;DHT22;9585;51.018;4.282;2024-01-15T08:34:42;1.50;99.90
18906;DHT22;9585;51.018;4.282;2024-01-15T08:37:09;1.50;99.90
18906;DHT22;9585;51.018;4.282;2024-01-15T08:39:37;1.60;99.90
18906;DHT22;9585;51.018;4.282;2024-01-15T08:42:05;1.60;99.90
18906;DHT22;9585;51.018;4.282;2024-01-15T08:44:35;1.70;99.90
18906;DHT22;9585;51.018;4.282;2024-01-15T08:47:03;1.70;99.90
18906;DHT22;9585;51.018;4.282;2024-01-15T08:49:31;1.70;99.90
18906;DHT22;9585;51.018;4.282;2024-01-15T08:51:59;1.70;99.90
18906;DHT22;9585;51.018;4.282;2024-01-15T08:54:26;1.80;99.90
18906;DHT22;9585;51.018;4.282;2024-01-15T08:56:57;1.80;99.90
18906;DHT22;9585;51.018;4.282;2024-01-15T08:59:25;1.80;99.90
18906;DHT22;9585;51.018;4.282;2024-01-15T09:01:55;1.80;99.90
18906;DHT22;9585;51.018;4.282;2024-01-15T09:04:26;1.90;99.90
18906;DHT22;9585;51.018;4.282;2024-01-15T09:06:54;1.90;99.90
18906;DHT22;9585;51.018;4.282;2024-01-15T09:09:21;1.90;99.90
18906;DHT22;9585;51.018;4.282;2024-01-15T09:11:50;1.90;99.90
18906;DHT22;9585;51.018;4.282;2024-01-15T09:14:18;1.80;99.90
18906;DHT22;9585;51.018;4.282;2024-01-15T09:16:48;2.00;99.90
18906;DHT22;9585;51.018;4.282;2024-01-15T09:19:17;2.00;99.90
18906;DHT22;9585;51.018;4.282;2024-01-15T09:21:45;2.20;99.90
18906;DHT22;9585;51.018;4.282;2024-01-15T09:24:12;2.30;99.90
18906;DHT22;9585;51.018;4.282;2024-01-15T09:26:42;2.30;99.90
18906;DHT22;9585;51.018;4.282;2024-01-15T09:29:10;2.30;99.90
18906;DHT22;9585;51.018;4.282;2024-01-15T09:31:39;2.40;99.90
18906;DHT22;9585;51.018;4.282;2024-01-15T09:34:07;2.40;99.90
18906;DHT22;9585;51.018;4.282;2024-01-15T09:36:40;2.30;99.90
18906;DHT22;9585;51.018;4.282;2024-01-15T09:39:08;2.40;99.90
18906;DHT22;9585;51.018;4.282;2024-01-15T09:41:37;2.60;99.90
18906;DHT22;9585;51.018;4.282;2024-01-15T09:44:05;2.60;99.90
18906;DHT22;9585;51.018;4.282;2024-01-15T09:46:34;2.70;99.90
18906;DHT22;9585;51.018;4.282;2024-01-15T09:49:02;2.60;99.90
18906;DHT22;9585;51.018;4.282;2024-01-15T09:51:31;2.70;99.90
18906;DHT22;9585;51.018;4.282;2024-01-15T09:54:01;2.90;99.90
18906;DHT22;9585;51.018;4.282;2024-01-15T09:56:28;3.10;99.90
18906;DHT22;9585;51.018;4.282;2024-01-15T09:58:56;3.10;99.90
18906;DHT22;9585;51.018;4.282;2024-01-15T10:01:26;3.10;99.90
18906;DHT22;9585;51.018;4.282;2024-01-15T10:03:57;3.00;99.90
18906;DHT22;9585;51.018;4.282;2024-01-15T10:06:27;3.00;99.90
18906;DHT22;9585;51.018;4.282;2024-01-15T10:08:57;3.00;99.90
18906;DHT22;9585;51.018;4.282;2024-01-15T10:11:27;3.10;99.90
18906;DHT22;9585;51.018;4.282;2024-01-15T10:13:56;3.00;99.90
18906;DHT22;9585;51.018;4.282;2024-01-15T10:16:24;3.20;99.90
18906;DHT22;9585;51.018;4.282;2024-01-15T10:18:51;3.30;99.90
18906;DHT22;9585;51.018;4.282;2024-01-15T10:21:19;3.30;99.90
18906;DHT22;9585;51.018;4.282;2024-01-15T10:23:49;3.40;99.90
18906;DHT22;9585;51.018;4.282;2024-01-15T10:26:17;3.50;99.90
18906;DHT22;9585;51.018;4.282;2024-01-15T10:28:50;3.70;99.90
18906;DHT22;9585;51.018;4.282;2024-01-15T10:31:18;3.80;99.90
18906;DHT22;9585;51.018;4.282;2024-01-15T10:33:48;3.80;99.90
18906;DHT22;9585;51.018;4.282;2024-01-15T10:36:16;3.70;99.90
18906;DHT22;9585;51.018;4.282;2024-01-15T10:38:44;3.80;99.90
18906;DHT22;9585;51.018;4.282;2024-01-15T10:41:12;3.90;99.90
18906;DHT22;9585;51.018;4.282;2024-01-15T10:43:39;4.00;99.90
18906;DHT22;9585;51.018;4.282;2024-01-15T10:46:11;3.90;99.90
18906;DHT22;9585;51.018;4.282;2024-01-15T10:48:45;3.90;99.90
18906;DHT22;9585;51.018;4.282;2024-01-15T10:51:13;4.10;99.90
18906;DHT22;9585;51.018;4.282;2024-01-15T10:53:42;4.00;99.90
18906;DHT22;9585;51.018;4.282;2024-01-15T10:56:13;4.00;99.90
18906;DHT22;9585;51.018;4.282;2024-01-15T10:58:42;4.10;99.90
18906;DHT22;9585;51.018;4.282;2024-01-15T11:01:11;3.80;99.90
18906;DHT22;9585;51.018;4.282;2024-01-15T11:03:40;3.70;99.90
18906;DHT22;9585;51.018;4.282;2024-01-15T11:06:16;3.60;99.90
18906;DHT22;9585;51.018;4.282;2024-01-15T11:08:46;3.70;99.90
18906;DHT22;9585;51.018;4.282;2024-01-15T11:11:16;3.80;99.90
18906;DHT22;9585;51.018;4.282;2024-01-15T11:13:45;3.80;99.90
18906;DHT22;9585;51.018;4.282;2024-01-15T11:16:17;3.90;99.90
18906;DHT22;9585;51.018;4.282;2024-01-15T11:19:02;4.00;99.90
18906;DHT22;9585;51.018;4.282;2024-01-15T11:21:42;4.10;99.90
18906;DHT22;9585;51.018;4.282;2024-01-15T11:24:10;4.20;99.90
18906;DHT22;9585;51.018;4.282;2024-01-15T11:26:45;4.00;99.90
18906;DHT22;9585;51.018;4.282;2024-01-15T11:29:30;3.90;99.90
18906;DHT22;9585;51.018;4.282;2024-01-15T11:32:04;3.90;99.90
18906;DHT22;9585;51.018;4.282;2024-01-15T11:34:51;4.00;99.90
18906;DHT22;9585;51.018;4.282;2024-01-15T11:37:20;4.00;99.90
18906;DHT22;9585;51.018;4.282;2024-01-15T11:39:54;3.90;99.90
18906;DHT22;9585;51.018;4.282;2024-01-15T11:42:22;3.70;99.90
18906;DHT22;9585;51.018;4.282;2024-01-15T11:44:50;3.50;99.90
18906;DHT22;9585;51.018;4.282;2024-01-15T11:50:24;3.50;99.90
18906;DHT22;9585;51.018;4.282;2024-01-15T11:52:59;3.50;99.90
18906;DHT22;9585;51.018;4.282;2024-01-15T11:55:34;3.40;99.90
18906;DHT22;9585;51.018;4.282;2024-01-15T11:58:02;3.50;99.90
18906;DHT22;9585;51.018;4.282;2024-01-15T12:00:35;3.50;99.90
18906;DHT22;9585;51.018;4.282;2024-01-15T12:03:08;3.40;99.90
18906;DHT22;9585;51.018;4.282;2024-01-15T12:05:37;3.60;99.90
18906;DHT22;9585;51.018;4.282;2024-01-15T12:08:08;3.70;99.90
18906;DHT22;9585;51.018;4.282;2024-01-15T12:10:37;3.70;99.90
18906;DHT22;9585;51.018;4.282;2024-01-15T12:13:10;3.90;99.90
18906;DHT22;9585;51.018;4.282;2024-01-15T12:15:38;4.10;99.90
18906;DHT22;9585;51.018;4.282;2024-01-15T12:18:09;4.30;99.90
18906;DHT22;9585;51.018;4.282;2024-01-15T12:20:37;4.30;99.90
18906;DHT22;9585;51.018;4.282;2024-01-15T12:23:04;4.30;99.90
18906;DHT22;9585;51.018;4.282;2024-01-15T12:25:32;4.20;99.90
18906;DHT22;9585;51.018;4.282;2024-01-15T12:28:01;4.00;99.90
18906;DHT22;9585;51.018;4.282;2024-01-15T12:30:29;3.90;99.90
18906;DHT22;9585;51.018;4.282;2024-01-15T12:32:57;3.80;99.90
18906;DHT22;9585;51.018;4.282;2024-01-15T12:35:26;3.70;99.90
18906;DHT22;9585;51.018;4.282;2024-01-15T12:37:55;3.60;99.90
18906;DHT22;9585;51.018;4.282;2024-01-15T12:40:23;3.40;99.90
18906;DHT22;9585;51.018;4.282;2024-01-15T12:42:51;3.50;99.90
18906;DHT22;9585;51.018;4.282;2024-01-15T12:45:18;3.60;99.90
18906;DHT22;9585;51.018;4.282;2024-01-15T12:47:46;3.80;99.90
18906;DHT22;9585;51.018;4.282;2024-01-15T12:50:14;3.90;99.90
18906;DHT22;9585;51.018;4.282;2024-01-15T12:52:42;3.90;99.90
18906;DHT22;9585;51.018;4.282;2024-01-15T12:55:10;3.80;99.90
18906;DHT22;9585;51.018;4.282;2024-01-15T12:57:38;3.90;99.90
18906;DHT22;9585;51.018;4.282;2024-01-15T13:00:06;3.90;99.90
18906;DHT22;9585;51.018;4.282;2024-01-15T13:02:38;3.90;99.90
18906;DHT22;9585;51.018;4.282;2024-01-15T13:05:08;3.60;99.90
18906;DHT22;9585;51.018;4.282;2024-01-15T13:07:37;3.20;99.90
18906;DHT22;9585;51.018;4.282;2024-01-15T13:10:07;3.00;99.90
18906;DHT22;9585;51.018;4.282;2024-01-15T13:12:35;2.60;99.90
18906;DHT22;9585;51.018;4.282;2024-01-15T13:15:02;2.70;99.90
18906;DHT22;9585;51.018;4.282;2024-01-15T13:17:30;2.70;99.90
18906;DHT22;9585;51.018;4.282;2024-01-15T13:19:58;2.70;99.90
18906;DHT22;9585;51.018;4.282;2024-01-15T13:22:25;2.80;99.90
18906;DHT22;9585;51.018;4.282;2024-01-15T13:24:57;3.00;99.90
18906;DHT22;9585;51.018;4.282;2024-01-15T13:27:26;3.10;99.90
18906;DHT22;9585;51.018;4.282;2024-01-15T13:29:54;3.20;99.90
18906;DHT22;9585;51.018;4.282;2024-01-15T13:32:24;3.10;99.90
18906;DHT22;9585;51.018;4.282;2024-01-15T13:34:53;2.90;99.90
18906;DHT22;9585;51.018;4.282;2024-01-15T13:37:21;2.50;99.90
18906;DHT22;9585;51.018;4.282;2024-01-15T13:39:50;2.00;99.90
18906;DHT22;9585;51.018;4.282;2024-01-15T13:42:19;1.50;99.90
18906;DHT22;9585;51.018;4.282;2024-01-15T13:44:49;1.20;99.90
18906;DHT22;9585;51.018;4.282;2024-01-15T13:47:17;1.00;99.90
18906;DHT22;9585;51.018;4.282;2024-01-15T13:49:45;1.00;99.90
18906;DHT22;9585;51.018;4.282;2024-01-15T13:52:12;1.10;99.90
18906;DHT22;9585;51.018;4.282;2024-01-15T13:54:40;1.10;99.90
18906;DHT22;9585;51.018;4.282;2024-01-15T13:57:08;1.20;99.90
18906;DHT22;9585;51.018;4.282;2024-01-15T13:59:35;1.20;99.90
18906;DHT22;9585;51.018;4.282;2024-01-15T14:02:05;1.30;99.90
18906;DHT22;9585;51.018;4.282;2024-01-15T14:04:32;1.40;99.90
18906;DHT22;9585;51.018;4.282;2024-01-15T14:07:00;1.60;99.90
18906;DHT22;9585;51.018;4.282;2024-01-15T14:09:28;1.60;99.90
18906;DHT22;9585;51.018;4.282;2024-01-15T14:11:58;1.50;99.90
18906;DHT22;9585;51.018;4.282;2024-01-15T14:14:31;1.40;99.90
18906;DHT22;9585;51.018;4.282;2024-01-15T14:16:59;1.30;99.90
18906;DHT22;9585;51.018;4.282;2024-01-15T14:19:28;1.10;99.90
18906;DHT22;9585;51.018;4.282;2024-01-15T14:21:56;1.10;99.90
18906;DHT22;9585;51.018;4.282;2024-01-15T14:24:23;1.00;99.90
18906;DHT22;9585;51.018;4.282;2024-01-15T14:26:51;0.90;99.90
18906;DHT22;9585;51.018;4.282;2024-01-15T14:29:18;0.90;99.90
18906;DHT22;9585;51.018;4.282;2024-01-15T14:31:48;1.00;99.90
18906;DHT22;9585;51.018;4.282;2024-01-15T14:34:16;1.10;99.90
18906;DHT22;9585;51.018;4.282;2024-01-15T14:36:45;1.20;99.90
18906;DHT22;9585;51.018;4.282;2024-01-15T14:39:13;1.30;99.90
18906;DHT22;9585;51.018;4.282;2024-01-15T14:41:40;1.30;99.90
18906;DHT22;9585;51.018;4.282;2024-01-15T14:44:08;1.40;99.90
18906;DHT22;9585;51.018;4.282;2024-01-15T14:46:35;1.60;99.90
18906;DHT22;9585;51.018;4.282;2024-01-15T14:49:03;1.80;99.90
18906;DHT22;9585;51.018;4.282;2024-01-15T14:51:31;1.90;99.90
18906;DHT22;9585;51.018;4.282;2024-01-15T14:54:00;1.90;99.90
18906;DHT22;9585;51.018;4.282;2024-01-15T14:56:27;1.90;99.90
18906;DHT22;9585;51.018;4.282;2024-01-15T14:58:55;1.90;99.90
18906;DHT22;9585;51.018;4.282;2024-01-15T15:01:22;1.80;99.90
18906;DHT22;9585;51.018;4.282;2024-01-15T15:03:50;1.70;99.90
18906;DHT22;9585;51.018;4.282;2024-01-15T15:06:18;1.70;99.90
18906;DHT22;9585;51.018;4.282;2024-01-15T15:08:46;1.70;99.90
18906;DHT22;9585;51.018;4.282;2024-01-15T15:11:15;1.70;99.90
18906;DHT22;9585;51.018;4.282;2024-01-15T15:13:43;1.70;99.90
18906;DHT22;9585;51.018;4.282;2024-01-15T15:16:11;1.70;99.90
18906;DHT22;9585;51.018;4.282;2024-01-15T15:18:39;1.70;99.90
18906;DHT22;9585;51.018;4.282;2024-01-15T15:21:08;1.70;99.90
18906;DHT22;9585;51.018;4.282;2024-01-15T15:23:37;1.70;99.90
18906;DHT22;9585;51.018;4.282;2024-01-15T15:26:05;1.60;99.90
18906;DHT22;9585;51.018;4.282;2024-01-15T15:28:34;1.60;99.90
18906;DHT22;9585;51.018;4.282;2024-01-15T15:31:02;1.70;99.90
18906;DHT22;9585;51.018;4.282;2024-01-15T15:33:30;1.90;99.90
18906;DHT22;9585;51.018;4.282;2024-01-15T15:35:58;1.90;99.90
18906;DHT22;9585;51.018;4.282;2024-01-15T15:38:30;1.70;99.90
18906;DHT22;9585;51.018;4.282;2024-01-15T15:40:58;1.80;99.90
18906;DHT22;9585;51.018;4.282;2024-01-15T15:43:25;1.80;99.90
18906;DHT22;9585;51.018;4.282;2024-01-15T15:45:54;1.80;99.90
18906;DHT22;9585;51.018;4.282;2024-01-15T15:48:21;1.70;99.90
18906;DHT22;9585;51.018;4.282;2024-01-15T15:50:50;1.70;99.90
18906;DHT22;9585;51.018;4.282;2024-01-15T15:53:19;1.60;99.90
18906;DHT22;9585;51.018;4.282;2024-01-15T15:55:48;1.50;99.90
18906;DHT22;9585;51.018;4.282;2024-01-15T15:58:15;1.50;99.90
18906;DHT22;9585;51.018;4.282;2024-01-15T16:00:42;1.50;99.90
18906;DHT22;9585;51.018;4.282;2024-01-15T16:03:12;1.50;99.90
18906;DHT22;9585;51.018;4.282;2024-01-15T16:05:39;1.60;99.90
18906;DHT22;9585;51.018;4.282;2024-01-15T16:08:09;1.60;99.90
18906;DHT22;9585;51.018;4.282;2024-01-15T16:10:38;1.50;99.90
18906;DHT22;9585;51.018;4.282;2024-01-15T16:13:08;1.40;99.90